AirNav   Advertisement
 
 1023 users online  

38WA Blakely Island Airport
Blakely Island, Washington, USA

GOING TO BLAKELY ISLAND?


FAA INFORMATION EFFECTIVE 14 SEPTEMBER 2017

Location

FAA Identifier: 38WA
Lat/Long: 48-34-44.3700N / 122-49-34.6470W
48-34.739500N / 122-49.577450W
48.5789917 / -122.8262908
(estimated)
Elevation: 66 ft. / 20.1 m (surveyed)
Variation: 21E (1985)
Time zone: UTC -7 (UTC -8 during Standard Time)
Zip code: 98222

Airport Operations

Airport use: Private use. Permission required prior to landing
Activation date: 01/1948
Control tower: no
ARTCC: SEATTLE CENTER
FSS: SEATTLE FLIGHT SERVICE STATION
Attendance: CONTINUOUS
Wind indicator: lighted
Segmented circle: no
Lights: ACTVT MIRL RY 01/19 - 122.9.

Airport Communications

WX AWOS-3 at ORS (8 nm NW): 135.425 (360-376-6045)
WX ASOS at FHR (9 nm SW): 135.675 (360-378-8491)
WX ASOS at BLI (17 nm NE): PHONE 360-671-8688
WX AWOS-3 at BVS (17 nm E): 121.125 (360-757-7767)
  • MULTICOM FREQ 122.9.

Nearby radio navigation aids

VOR radial/distance  VOR name  Freq  Var
CVVr330/20.5PENN COVE VOR/DME117.2019E
HUHr184/24.1WHATCOM VORTAC113.0020E
YYJr092/27.6VICTORIA VOR/DME113.7017E
YVRr140/32.5VANCOUVER VOR/DME115.9017E

 
NDB name  Hdg/Dist  Freq  Var  ID
FRIDAY HARBOR046/8.828417EFHR ..-. .... .-.
SKAGIT/BAY VIEW276/17.524016EBVS -... ...- ...

Airport Services

Runway Information

Runway 1/19

Dimensions: 2200 x 40 ft. / 671 x 12 m
ADDNL 200 X 40' OVRNS & TURBC BOTH ENDS RWY 01/19.
Surface: asphalt
Runway edge lights: medium intensity
RUNWAY 1  RUNWAY 19
Traffic pattern: leftright
Displaced threshold: 252 ft.122 ft.
Obstructions: trees, 2000 ft. from runwaytrees, 2000 ft. from runway

Airport Ownership and Management from official FAA records

Ownership: Privately-owned
Owner: BLAKELY ISLAND MAINT COM
355 BLAKELY DR
BLAKELY ISLAND, WA 98222
Manager: KEVIN CLARK
355 BLAKELY DR
BLAKLEY ISLAND, WA 98222
Phone 360-375-6624
425-827-2146 (H) KEVIN.E.CLARK2@BOEING.COM (E)

Airport Operational Statistics

Aircraft based on the field: 11
Single engine airplanes: 5
Multi engine airplanes: 6
    

Additional Remarks

TREES BOTH SIDES OF RWY PENT TRSNL SFC.
WATCH FOR DEER ON RWY.
MIDDLE RY 01/19 HIGHER THAN EITHER END. CHECK ARPT TFC FM RUN-UP PAD CENTER OF FLD BEFORE TKOF.

Instrument Procedures

There are no published instrument procedures at 38WA.

Some nearby airports with instrument procedures:

KORS - Orcas Island Airport (8 nm NW)
KFHR - Friday Harbor Airport (9 nm SW)
KNUW - Whidbey Island Naval Air Station/Ault Field (15 nm SE)
KBLI - Bellingham International Airport (17 nm NE)
KBVS - Skagit Regional Airport (17 nm E)
 
Loc | Ops | Rwys | IFR | FBO | Links
Com | Nav | Svcs | Stats | Notes


 
Area around 38WA (Blakely Island Airport)
 
Road maps at: MapQuest Bing Google
 
Aerial photo
WARNING: Photo may not be current or correct
Aerial photo of 38WA (Blakely Island Airport)
Photo by Domenick Venezia, 2003-09

Do you have a better or more recent aerial photo of Blakely Island Airport that you would like to share? If so, please send us your photo.

 
Sectional chart

 
Airport distance calculator
Flying to Blakely Island Airport? Find the distance to fly.

From to 38WA

Sunrise and sunset
Times for 24-Sep-2017
 Local
(UTC-7)
 Zulu
(UTC)
Morning civil twilight06:3113:31
Sunrise07:0214:02
Sunset19:0502:05
Evening civil twilight19:3602:36

Current date and time
Zulu (UTC)  24-Sep-2017 19:27:48
Local (UTC-7)  24-Sep-2017 12:27:48
 
METAR
KORS 
8nm N 
241915Z AUTO 17004KT 10SM SCT050 17/11 A3014 RMK AO2
74S 
8nm SE 
SuperAWOS
241837Z AUTO 00000KT 10SM 13/11 A3016
KFHR 
9nm SW 
241853Z AUTO 13004KT 10SM OVC050 14/11 A3016 RMK AO2 SLP212 T01440111
CWEZ 
14nm NW 
241900Z AUTO 19003KT 14/10 RMK AO1 SLP205 T01430103 58002
KNUW 
15nm SE 
241856Z 32003KT 10SM FEW010 BKN050 BKN120 BKN220 15/09 A3019 RMK AO2 SLP221 T01500089 $
CWZO 
16nm W 
241900Z AUTO 18007KT RMK AO1
KBVS 
18nm E 
241915Z AUTO 17003KT 10SM OVC046 17/11 A3014 RMK A01
KBLI 
18nm NE 
241853Z 26004KT 10SM OVC045 14/10 A3015 RMK AO2 SLP215 T01440100
CWYJ 
20nm SW 
241900Z AUTO 11002KT 16/10 RMK AO1 SLP205 T01580096 58004
TAF
KNUW 
15nm SE 
2415/2515 VRB06KT 9999 SCT004 SCT007 BKN035 BKN110 610809 611705 QNH3012INS TEMPO 2415/2418 1600 BR VV002 FM242000 25007KT 9999 SCT008 BKN050 610809 611705 QNH3010INS FM250400 VRB06KT 9999 FEW020 BKN040 OVC100 610809 611705 QNH3009INS FM251200 VRB06KT 4800 BR BKN015 BKN050 OVC100 610809 611705 QNH3010INS TEMPO 2512/2515 2400 BR -RA BKN008 BKN030 T18/2423Z T10/2512Z FS30119
KBLI 
18nm NE 
241727Z 2418/2518 VRB03KT P6SM BKN050 BKN200 FM242000 19005KT P6SM SCT050 SCT120 BKN200 TEMPO 2420/2424 BKN050 OVC120 FM250000 17005KT P6SM SCT050 OVC100 FM250900 17005KT P6SM BKN050 OVC100 FM251200 17007KT P6SM SCT011 OVC050 PROB30 2512/2518 -RA BKN011 OVC050
NOTAMs
Click for the latest NOTAMs
NOTAMs are issued by the DoD/FAA and will open in a separate window not controlled by AirNav.

 

 
 

Would you like to see your business listed on this page?

 If your business provides an interesting product or service to pilots, flight crews, aircraft, or users of the Blakely Island Airport, you should consider listing it here.  To start the listing process, click on the button below
 
Add a business
 

Other Pages about Blakely Island Airport

www.rockisland.com/...
 
Update a link
 
Copyright © AirNav, LLC. All rights reserved. Privacy Policy  Contact